Time;durP1;ratioP1;P1;durP2;ratioP2;P2;SDS_P1;SDS_P2;PMS_P1;PMS_P2;Temp;Humidity;BMP_temperature;BMP_pressure;BME280_temperature;BME280_humidity;BME280_pressure;Samples;Min_cycle;Max_cycle;Signal;HPM_P1;HPM_P2
2022/04/29 00:00:31;;;;;;;16.30;5.50;;;6.50;81.60;;;;;;4831945;29;20320;-85
2022/04/29 00:02:56;;;;;;;15.33;6.40;;;6.40;81.50;;;;;;4832865;29;20219;-85
2022/04/29 00:05:22;;;;;;;15.33;5.60;;;6.40;82.00;;;;;;4816175;29;20183;-85
2022/04/29 00:07:47;;;;;;;14.60;4.80;;;6.30;81.60;;;;;;4816012;29;20271;-85
2022/04/29 00:10:15;;;;;;;11.77;5.30;;;6.20;81.60;;;;;;4834253;29;20557;-85
2022/04/29 00:12:43;;;;;;;12.97;5.60;;;6.10;81.60;;;;;;4818191;29;20190;-85
2022/04/29 00:15:10;;;;;;;15.23;6.67;;;6.00;81.50;;;;;;4817621;29;20184;-85
2022/04/29 00:17:36;;;;;;;12.77;5.67;;;6.00;81.70;;;;;;4834609;29;20202;-85
2022/04/29 00:20:03;;;;;;;16.70;6.47;;;5.90;81.40;;;;;;4833750;29;20180;-85
2022/04/29 00:22:29;;;;;;;11.13;5.47;;;6.00;81.90;;;;;;4833448;29;20204;-85
2022/04/29 00:24:55;;;;;;;9.90;5.73;;;6.00;82.00;;;;;;4816358;29;20195;-85
2022/04/29 00:27:20;;;;;;;13.80;6.10;;;5.90;82.00;;;;;;4832760;29;20224;-85
2022/04/29 00:29:46;;;;;;;11.17;5.27;;;5.90;81.80;;;;;;4816188;29;20184;-85
2022/04/29 00:32:11;;;;;;;17.47;6.53;;;6.00;82.00;;;;;;4833199;29;20658;-85
2022/04/29 00:34:37;;;;;;;14.00;6.10;;;6.10;82.20;;;;;;4832604;29;20222;-85
2022/04/29 00:37:03;;;;;;;14.03;6.17;;;6.00;82.60;;;;;;4832416;29;20210;-85
2022/04/29 00:39:28;;;;;;;16.53;6.40;;;6.00;82.70;;;;;;4832906;29;20658;-85
2022/04/29 00:41:54;;;;;;;10.67;5.90;;;6.00;83.00;;;;;;4815601;29;20207;-85
2022/04/29 00:44:20;;;;;;;16.90;6.27;;;5.90;83.10;;;;;;4832578;29;20227;-85
2022/04/29 00:46:47;;;;;;;10.63;5.30;;;5.80;82.80;;;;;;4816274;29;20274;-85
2022/04/29 00:49:14;;;;;;;12.40;5.50;;;5.70;83.00;;;;;;4817123;29;20184;-85
2022/04/29 00:51:45;;;;;;;17.17;6.20;;;5.70;83.20;;;;;;4836579;29;20568;-85
2022/04/29 00:54:17;;;;;;;13.20;5.63;;;5.70;82.90;;;;;;4818905;29;20204;-85
2022/04/29 00:56:43;;;;;;;12.87;5.57;;;5.70;82.80;;;;;;4829074;29;20199;-84
2022/04/29 00:59:16;;;;;;;8.37;5.30;;;5.70;82.70;;;;;;4827579;29;20238;-85
2022/04/29 01:01:44;;;;;;;14.90;5.83;;;5.70;82.60;;;;;;4811171;29;20203;-84
2022/04/29 01:04:22;;;;;;;18.03;5.63;;;5.80;82.50;;;;;;4828749;29;20198;-85
2022/04/29 01:06:48;;;;;;;16.97;6.60;;;5.90;82.80;;;;;;4830301;29;20698;-85
2022/04/29 01:09:13;;;;;;;17.03;6.43;;;5.80;83.00;;;;;;4811004;29;20190;-84
2022/04/29 01:11:39;;;;;;;12.40;6.40;;;5.80;83.20;;;;;;4811036;29;20212;-84
2022/04/29 01:14:05;;;;;;;16.67;7.03;;;5.80;83.50;;;;;;4810976;29;20298;-85
2022/04/29 01:16:30;;;;;;;20.80;7.00;;;5.80;83.70;;;;;;4827092;29;20213;-84
2022/04/29 01:18:56;;;;;;;10.20;5.70;;;5.80;83.80;;;;;;4827072;29;20194;-85
2022/04/29 01:21:21;;;;;;;16.67;5.90;;;5.80;83.80;;;;;;4810819;29;20645;-84
2022/04/29 01:23:47;;;;;;;16.33;6.50;;;5.80;84.00;;;;;;4826977;29;20795;-84
2022/04/29 01:26:15;;;;;;;16.20;6.17;;;5.80;84.20;;;;;;4827349;29;20184;-84
2022/04/29 01:28:45;;;;;;;16.47;6.57;;;5.80;84.20;;;;;;4827023;29;20194;-84
2022/04/29 01:31:14;;;;;;;15.57;6.17;;;5.80;84.20;;;;;;4810762;29;20676;-84
2022/04/29 01:33:42;;;;;;;12.90;5.60;;;5.80;84.30;;;;;;4826780;29;20650;-85
2022/04/29 01:36:09;;;;;;;15.53;6.40;;;5.80;84.10;;;;;;4826901;29;20240;-85
2022/04/29 01:38:35;;;;;;;12.33;6.57;;;5.80;84.20;;;;;;4810532;29;20183;-85
2022/04/29 01:41:00;;;;;;;17.13;5.90;;;5.70;84.10;;;;;;4810553;29;20661;-84
2022/04/29 01:43:26;;;;;;;20.33;6.87;;;5.60;83.90;;;;;;4810561;29;20219;-84
2022/04/29 01:45:54;;;;;;;12.93;6.10;;;5.60;84.20;;;;;;4811244;29;20189;-84
2022/04/29 01:48:19;;;;;;;12.37;6.03;;;5.60;84.10;;;;;;4810460;29;20662;-85
2022/04/29 01:50:45;;;;;;;15.53;5.90;;;5.50;84.20;;;;;;4826534;29;20219;-84
2022/04/29 01:53:10;;;;;;;14.90;6.00;;;5.30;84.50;;;;;;4810494;29;20255;-84
2022/04/29 01:55:36;;;;;;;11.63;6.40;;;5.30;84.70;;;;;;4826646;29;20183;-84
2022/04/29 01:58:01;;;;;;;13.30;6.57;;;5.20;84.70;;;;;;4811118;29;20186;-85
2022/04/29 02:00:27;;;;;;;13.33;6.23;;;4.90;84.90;;;;;;4825513;29;20190;-85
2022/04/29 02:02:55;;;;;;;10.30;6.07;;;4.90;85.20;;;;;;4826240;29;20222;-84
2022/04/29 02:05:21;;;;;;;13.27;6.77;;;5.10;85.30;;;;;;4809984;29;20181;-84
2022/04/29 02:07:46;;;;;;;13.43;5.90;;;5.10;84.80;;;;;;4810072;29;20195;-84
2022/04/29 02:10:13;;;;;;;9.73;5.47;;;4.90;84.80;;;;;;4826183;29;20178;-84
2022/04/29 02:12:38;;;;;;;9.87;5.70;;;4.80;85.10;;;;;;4826378;29;20674;-84
2022/04/29 02:15:05;;;;;;;14.93;5.87;;;5.00;85.40;;;;;;4826144;29;20242;-85
2022/04/29 02:17:30;;;;;;;12.33;5.33;;;5.10;85.10;;;;;;4826334;29;20179;-85
2022/04/29 02:19:56;;;;;;;11.17;6.03;;;5.20;84.40;;;;;;4826160;29;20686;-84
2022/04/29 02:22:21;;;;;;;13.67;6.37;;;5.00;84.30;;;;;;4809752;29;20579;-84
2022/04/29 02:24:47;;;;;;;15.83;6.47;;;5.00;84.40;;;;;;4825950;29;20282;-84
2022/04/29 02:27:12;;;;;;;16.13;6.13;;;5.10;84.60;;;;;;4826158;29;20729;-84
2022/04/29 02:29:38;;;;;;;14.10;6.20;;;5.10;84.30;;;;;;4826002;29;20187;-84
2022/04/29 02:32:04;;;;;;;10.00;6.20;;;5.10;84.10;;;;;;4826550;29;20222;-85
2022/04/29 02:34:29;;;;;;;13.73;6.00;;;5.20;84.00;;;;;;4809488;29;20813;-84
2022/04/29 02:36:55;;;;;;;10.57;5.57;;;5.20;83.90;;;;;;4809742;29;20232;-84
2022/04/29 02:39:21;;;;;;;12.50;6.23;;;5.30;83.50;;;;;;4809449;29;20278;-85
2022/04/29 02:41:47;;;;;;;12.07;6.00;;;5.30;83.30;;;;;;4825864;29;20218;-84
2022/04/29 02:44:13;;;;;;;8.53;5.13;;;5.40;83.10;;;;;;4809512;29;20203;-84
2022/04/29 02:49:23;;;;;;;13.03;5.80;;;5.30;82.90;;;;;;4826620;29;20634;-85
2022/04/29 02:51:48;;;;;;;10.83;4.80;;;5.30;82.90;;;;;;4809229;29;20186;-84
2022/04/29 02:54:14;;;;;;;14.30;6.23;;;5.30;82.90;;;;;;4825543;29;20203;-85
2022/04/29 02:56:40;;;;;;;14.97;6.10;;;5.30;83.00;;;;;;4809373;29;20183;-84
2022/04/29 02:59:05;;;;;;;11.93;6.63;;;5.30;83.00;;;;;;4825504;29;20188;-84
2022/04/29 03:01:31;;;;;;;16.33;6.50;;;5.40;83.60;;;;;;4825471;29;20210;-84
2022/04/29 03:03:58;;;;;;;13.40;6.53;;;5.30;83.80;;;;;;4809254;29;20237;-84
2022/04/29 03:06:23;;;;;;;11.33;6.23;;;5.30;83.80;;;;;;4825696;29;20172;-84
2022/04/29 03:08:49;;;;;;;14.90;6.80;;;5.30;83.70;;;;;;4825789;29;20261;-84
2022/04/29 03:11:14;;;;;;;15.57;6.10;;;5.30;83.90;;;;;;4809043;29;20592;-85
2022/04/29 03:13:40;;;;;;;15.00;7.17;;;5.30;84.00;;;;;;4825636;29;20200;-85
2022/04/29 03:16:06;;;;;;;16.53;6.20;;;5.30;84.20;;;;;;4809056;29;20191;-84
2022/04/29 03:18:31;;;;;;;14.10;6.40;;;5.20;84.50;;;;;;4808921;29;20193;-84
2022/04/29 03:20:57;;;;;;;15.07;7.37;;;5.20;84.50;;;;;;4808852;29;20224;-84
2022/04/29 03:23:23;;;;;;;10.13;6.40;;;5.20;84.50;;;;;;4808750;29;20225;-84
2022/04/29 03:25:49;;;;;;;13.20;6.07;;;5.10;84.50;;;;;;4808700;29;20196;-84
2022/04/29 03:28:15;;;;;;;11.60;6.50;;;5.10;84.60;;;;;;4825265;29;20183;-84
2022/04/29 03:30:41;;;;;;;10.33;6.50;;;5.00;84.40;;;;;;4808607;29;20259;-84
2022/04/29 03:33:08;;;;;;;14.27;6.30;;;5.00;84.60;;;;;;4824828;29;20215;-84
2022/04/29 03:35:41;;;;;;;9.07;6.10;;;5.10;84.60;;;;;;4825071;29;20186;-85
2022/04/29 03:38:07;;;;;;;10.63;6.23;;;5.10;84.40;;;;;;4825041;29;20179;-84
2022/04/29 03:40:33;;;;;;;12.43;6.47;;;5.10;84.20;;;;;;4825061;29;20208;-85
2022/04/29 03:42:58;;;;;;;13.30;6.63;;;5.10;83.90;;;;;;4808256;29;20274;-84
2022/04/29 03:45:26;;;;;;;14.47;5.70;;;5.00;84.00;;;;;;4824860;29;20188;-84
2022/04/29 03:47:53;;;;;;;14.67;6.20;;;4.90;83.80;;;;;;4808569;29;20184;-85
2022/04/29 03:50:19;;;;;;;13.37;5.70;;;4.80;84.10;;;;;;4824925;29;20179;-84
2022/04/29 03:52:47;;;;;;;10.13;6.67;;;4.70;84.60;;;;;;4808593;29;20214;-84
2022/04/29 03:55:14;;;;;;;17.30;6.77;;;4.80;84.70;;;;;;4808531;29;20697;-84
2022/04/29 03:57:39;;;;;;;10.67;6.50;;;4.90;84.40;;;;;;4824814;29;20208;-84
2022/04/29 04:00:06;;;;;;;11.23;5.67;;;4.90;84.10;;;;;;4824784;29;20611;-85
2022/04/29 04:02:32;;;;;;;10.23;6.30;;;5.00;83.90;;;;;;4808307;29;20263;-84
2022/04/29 04:04:57;;;;;;;13.10;6.00;;;4.80;84.00;;;;;;4808566;29;20209;-85
2022/04/29 04:07:23;;;;;;;11.83;5.97;;;4.80;84.40;;;;;;4824707;29;20273;-85
2022/04/29 04:09:49;;;;;;;11.67;6.03;;;4.90;84.50;;;;;;4824546;29;20657;-84
2022/04/29 04:12:15;;;;;;;9.80;5.60;;;4.80;84.20;;;;;;4808179;29;20277;-84
2022/04/29 04:14:40;;;;;;;11.57;6.17;;;4.60;84.40;;;;;;4824612;29;20206;-85
2022/04/29 04:17:07;;;;;;;11.10;6.30;;;4.60;84.60;;;;;;4808037;29;20185;-85
2022/04/29 04:19:34;;;;;;;10.97;6.33;;;4.40;84.80;;;;;;4808069;29;20195;-85
2022/04/29 04:22:00;;;;;;;12.30;6.30;;;4.30;85.10;;;;;;4824465;29;20607;-85
2022/04/29 04:24:26;;;;;;;10.23;6.20;;;4.30;85.00;;;;;;4826427;29;20231;-84
2022/04/29 04:26:51;;;;;;;8.07;6.10;;;4.30;85.20;;;;;;4811750;29;20176;-84
2022/04/29 04:29:17;;;;;;;11.23;6.63;;;4.30;85.60;;;;;;4811737;29;20601;-84
2022/04/29 04:31:42;;;;;;;11.73;6.23;;;4.40;85.90;;;;;;4828256;29;20190;-84
2022/04/29 04:36:55;;;;;;;9.40;6.57;;;4.70;85.30;;;;;;4828434;29;20731;-85
2022/04/29 04:39:22;;;;;;;13.93;7.00;;;4.70;85.00;;;;;;4827788;29;20561;-84
2022/04/29 04:41:48;;;;;;;10.63;6.00;;;4.80;84.70;;;;;;4811641;29;20218;-85
2022/04/29 04:44:14;;;;;;;14.47;7.37;;;4.80;84.50;;;;;;4811662;29;20252;-84
2022/04/29 04:46:40;;;;;;;11.40;6.83;;;4.90;84.30;;;;;;4827533;29;20182;-85
2022/04/29 04:49:05;;;;;;;11.03;6.67;;;4.90;84.20;;;;;;4827816;29;20643;-84
2022/04/29 04:51:31;;;;;;;11.67;7.43;;;4.90;84.10;;;;;;4811315;29;20221;-84
2022/04/29 04:53:56;;;;;;;11.93;7.43;;;4.90;84.10;;;;;;4827434;29;20242;-85
2022/04/29 04:56:22;;;;;;;17.50;7.67;;;4.90;84.10;;;;;;4812097;29;20261;-84
2022/04/29 04:58:47;;;;;;;16.37;7.30;;;4.90;84.20;;;;;;4827550;29;20650;-84
2022/04/29 05:01:13;;;;;;;15.40;7.80;;;4.90;84.60;;;;;;4811935;29;20189;-85
2022/04/29 05:03:39;;;;;;;13.27;7.57;;;4.90;84.80;;;;;;4811122;29;20604;-85
2022/04/29 05:06:04;;;;;;;21.63;8.67;;;4.90;85.10;;;;;;4827531;29;20637;-84
2022/04/29 05:08:30;;;;;;;16.67;7.93;;;4.90;85.20;;;;;;4811159;29;20192;-84
2022/04/29 05:10:55;;;;;;;19.27;8.90;;;4.90;85.60;;;;;;4827252;29;20235;-85
2022/04/29 05:13:21;;;;;;;16.63;8.00;;;5.00;85.80;;;;;;4810953;29;20627;-85
2022/04/29 05:15:47;;;;;;;11.57;7.37;;;5.10;85.80;;;;;;4810760;29;20229;-85
2022/04/29 05:18:12;;;;;;;19.60;8.50;;;5.20;85.70;;;;;;4810787;29;20224;-84
2022/04/29 05:20:38;;;;;;;14.67;7.77;;;5.30;85.50;;;;;;4827293;29;20189;-84
2022/04/29 05:23:03;;;;;;;14.60;7.80;;;5.30;85.50;;;;;;4827022;29;20283;-85
2022/04/29 05:25:29;;;;;;;26.13;8.43;;;5.30;85.40;;;;;;4810854;29;20193;-84
2022/04/29 05:27:54;;;;;;;13.93;7.57;;;5.30;85.60;;;;;;4827339;29;20558;-85
2022/04/29 05:30:20;;;;;;;14.50;8.40;;;5.30;85.80;;;;;;4810698;29;20269;-85
2022/04/29 05:32:46;;;;;;;19.57;8.97;;;5.30;85.80;;;;;;4810381;29;20287;-85
2022/04/29 05:35:13;;;;;;;26.57;8.13;;;5.30;86.00;;;;;;4827236;29;20172;-84
2022/04/29 05:37:40;;;;;;;17.17;8.77;;;5.40;86.20;;;;;;4810671;29;20601;-85
2022/04/29 05:42:51;;;;;;;14.00;8.33;;;5.60;86.00;;;;;;4826982;29;20208;-84
2022/04/29 05:45:16;;;;;;;21.93;9.80;;;5.60;85.80;;;;;;4826852;29;20553;-85
2022/04/29 05:47:42;;;;;;;14.33;8.33;;;5.70;85.80;;;;;;4826987;29;20179;-85
2022/04/29 05:50:07;;;;;;;15.00;9.40;;;5.70;85.80;;;;;;4826672;29;20190;-84
2022/04/29 05:52:33;;;;;;;18.43;14.53;;;5.80;85.70;;;;;;4810253;29;20194;-85
2022/04/29 05:54:58;;;;;;;18.53;10.13;;;5.90;85.50;;;;;;4810327;29;20194;-85
2022/04/29 05:57:24;;;;;;;11.83;8.73;;;6.10;85.60;;;;;;4827158;29;20210;-85
2022/04/29 05:59:50;;;;;;;12.83;8.33;;;6.20;85.10;;;;;;4810306;29;20581;-85
2022/04/29 06:02:15;;;;;;;21.50;8.73;;;6.30;85.00;;;;;;4826351;29;20258;-84
2022/04/29 06:04:41;;;;;;;11.13;7.33;;;6.50;85.10;;;;;;4809973;29;20211;-85
2022/04/29 06:07:07;;;;;;;17.00;6.90;;;6.50;85.10;;;;;;4810050;29;20190;-85
2022/04/29 06:09:32;;;;;;;15.30;7.27;;;6.60;85.00;;;;;;4826373;29;20194;-85
2022/04/29 06:11:58;;;;;;;11.57;6.53;;;6.70;84.90;;;;;;4810154;29;20274;-84
2022/04/29 06:14:23;;;;;;;19.33;7.17;;;6.70;84.90;;;;;;4809875;29;20239;-85
2022/04/29 06:16:49;;;;;;;14.17;6.70;;;6.80;84.70;;;;;;4809931;29;20192;-84
2022/04/29 06:19:14;;;;;;;14.13;6.83;;;7.00;84.70;;;;;;4810004;29;20195;-85
2022/04/29 06:21:40;;;;;;;11.73;4.83;;;7.30;84.60;;;;;;4826093;29;20246;-85
2022/04/29 06:24:07;;;;;;;12.73;5.70;;;7.40;83.30;;;;;;4826159;29;20206;-85
2022/04/29 06:26:33;;;;;;;12.63;5.60;;;7.50;82.40;;;;;;4809863;29;20192;-85
2022/04/29 06:28:58;;;;;;;13.17;5.37;;;7.70;82.30;;;;;;4809805;29;20554;-85
2022/04/29 06:31:24;;;;;;;15.53;6.13;;;7.80;81.30;;;;;;4826128;29;20187;-85
2022/04/29 06:33:49;;;;;;;13.03;5.87;;;7.90;80.90;;;;;;4825768;29;20227;-84
2022/04/29 06:36:15;;;;;;;8.23;5.30;;;7.90;80.30;;;;;;4825921;29;20186;-84
2022/04/29 06:38:40;;;;;;;10.13;6.00;;;8.00;80.40;;;;;;4809751;29;20275;-85
2022/04/29 06:41:06;;;;;;;11.67;5.10;;;8.10;80.60;;;;;;4809728;29;20656;-85
2022/04/29 06:43:32;;;;;;;12.17;5.33;;;8.30;79.80;;;;;;4809493;29;20204;-85
2022/04/29 06:45:58;;;;;;;19.13;5.60;;;8.20;79.30;;;;;;4825641;29;20172;-85
2022/04/29 06:48:24;;;;;;;12.93;5.07;;;8.10;78.60;;;;;;4825397;29;20224;-85
2022/04/29 06:50:49;;;;;;;22.43;6.10;;;8.30;79.10;;;;;;4809257;29;20180;-84
2022/04/29 06:53:15;;;;;;;14.67;5.93;;;8.20;78.30;;;;;;4825729;29;20208;-85
2022/04/29 06:55:40;;;;;;;11.40;5.63;;;8.20;78.40;;;;;;4825902;29;20203;-85
2022/04/29 06:58:07;;;;;;;12.20;5.33;;;8.40;78.90;;;;;;4825884;29;20195;-85
2022/04/29 07:00:33;;;;;;;20.50;6.23;;;8.60;77.80;;;;;;4809225;29;20192;-85
2022/04/29 07:03:02;;;;;;;13.47;5.80;;;8.60;77.70;;;;;;4825458;29;20219;-85
2022/04/29 07:05:30;;;;;;;18.60;5.40;;;8.70;77.00;;;;;;4825649;29;20176;-84
2022/04/29 07:07:57;;;;;;;14.50;5.80;;;8.70;77.50;;;;;;4809138;29;20188;-85
2022/04/29 07:10:23;;;;;;;10.37;4.87;;;8.80;76.80;;;;;;4809046;29;20569;-85
2022/04/29 07:12:49;;;;;;;13.03;5.87;;;8.80;76.90;;;;;;4808874;29;20191;-85
2022/04/29 07:15:15;;;;;;;12.13;5.50;;;8.80;76.70;;;;;;4808927;29;20659;-85
2022/04/29 07:17:43;;;;;;;13.47;5.60;;;9.00;77.20;;;;;;4808949;29;20283;-86
2022/04/29 07:20:11;;;;;;;13.00;5.83;;;9.00;76.50;;;;;;4809013;29;20188;-84
2022/04/29 07:22:38;;;;;;;14.77;5.43;;;9.00;76.40;;;;;;4825238;29;20254;-85
2022/04/29 07:25:09;;;;;;;8.43;4.00;;;9.10;76.50;;;;;;4825324;29;20195;-86
2022/04/29 07:27:35;;;;;;;9.70;4.80;;;9.30;75.50;;;;;;4808932;29;20176;-85
2022/04/29 07:30:02;;;;;;;16.03;5.30;;;9.40;75.60;;;;;;4808763;29;20273;-86
2022/04/29 07:32:28;;;;;;;7.97;4.47;;;9.60;75.00;;;;;;4825100;29;20180;-86
2022/04/29 07:43:08;;;;;;;11.43;4.13;;;9.90;72.50;;;;;;4825301;29;20242;-85
2022/04/29 07:45:36;;;;;;;10.33;4.37;;;10.00;72.20;;;;;;4808777;29;20652;-85
2022/04/29 07:48:05;;;;;;;13.93;4.30;;;9.90;72.70;;;;;;4808712;29;20716;-85
2022/04/29 07:50:35;;;;;;;33.67;5.17;;;9.80;71.60;;;;;;4808936;29;20619;-86
2022/04/29 07:53:02;;;;;;;10.27;3.80;;;9.80;72.10;;;;;;4808589;29;20352;-86
2022/04/29 07:55:28;;;;;;;9.80;3.90;;;9.70;72.60;;;;;;4808589;29;20188;-86
2022/04/29 07:57:55;;;;;;;10.93;3.57;;;9.60;72.80;;;;;;4808363;29;20632;-85
2022/04/29 08:00:22;;;;;;;10.73;3.10;;;9.80;72.90;;;;;;4808774;29;20212;-85
2022/04/29 08:02:48;;;;;;;11.17;3.40;;;9.80;71.90;;;;;;4808870;29;20302;-86
2022/04/29 08:05:13;;;;;;;8.60;4.10;;;9.70;71.70;;;;;;4808519;29;20192;-85
2022/04/29 08:07:40;;;;;;;8.70;3.70;;;9.70;71.40;;;;;;4824894;29;20559;-86
2022/04/29 08:10:06;;;;;;;11.67;4.00;;;9.80;72.00;;;;;;4808539;29;20192;-86
2022/04/29 08:12:32;;;;;;;12.37;3.60;;;9.80;71.10;;;;;;4808582;29;20188;-86
2022/04/29 08:14:58;;;;;;;10.40;3.63;;;9.80;71.60;;;;;;4808476;29;20204;-87
2022/04/29 08:17:25;;;;;;;14.13;5.43;;;9.90;72.10;;;;;;4808233;29;20333;-87
2022/04/29 08:19:51;;;;;;;7.63;3.77;;;9.90;71.10;;;;;;4824769;29;20536;-86
2022/04/29 08:22:17;;;;;;;14.03;4.20;;;10.00;70.50;;;;;;4808540;29;20245;-86
2022/04/29 08:24:43;;;;;;;12.30;4.23;;;9.90;71.60;;;;;;4824632;29;20235;-86
2022/04/29 08:27:10;;;;;;;13.23;3.97;;;10.00;71.90;;;;;;4808400;29;20660;-86
2022/04/29 08:29:36;;;;;;;6.17;3.43;;;10.30;72.20;;;;;;4808217;29;20195;-86
2022/04/29 08:32:04;;;;;;;10.47;3.90;;;10.30;70.20;;;;;;4808012;29;20188;-86
2022/04/29 08:34:30;;;;;;;8.20;2.97;;;10.50;71.40;;;;;;4807907;29;20227;-86
2022/04/29 08:36:55;;;;;;;11.57;3.27;;;10.60;69.80;;;;;;4807996;29;20195;-86
2022/04/29 08:39:21;;;;;;;20.90;3.43;;;10.50;69.70;;;;;;4808012;29;20192;-87
2022/04/29 08:41:50;;;;;;;7.17;2.80;;;10.70;69.20;;;;;;4824216;29;20287;-87
2022/04/29 08:44:19;;;;;;;14.40;3.43;;;10.60;67.50;;;;;;4807889;29;20204;-87
2022/04/29 08:46:45;;;;;;;6.80;2.80;;;10.80;68.10;;;;;;4807837;29;20210;-87
2022/04/29 08:51:39;;;;;;;11.50;3.50;;;10.70;67.60;;;;;;4825929;29;20260;-88
2022/04/29 08:54:06;;;;;;;7.13;3.47;;;11.00;67.90;;;;;;4825351;29;20176;-87
2022/04/29 08:59:19;;;;;;;9.93;3.40;;;11.30;66.00;;;;;;4824753;29;20700;-87
2022/04/29 09:01:45;;;;;;;11.43;3.73;;;11.30;65.70;;;;;;4790390;29;20246;-86
2022/04/29 09:04:11;;;;;;;7.43;2.90;;;11.50;66.30;;;;;;4806895;29;20173;-86
2022/04/29 09:06:50;;;;;;;10.17;2.90;;;11.30;64.60;;;;;;4790422;29;20192;-86
2022/04/29 09:09:20;;;;;;;5.90;2.80;;;11.60;65.80;;;;;;4789984;29;20245;-86
2022/04/29 09:11:46;;;;;;;8.83;3.00;;;11.70;64.80;;;;;;4793444;29;20193;-86
2022/04/29 09:14:20;;;;;;;9.80;3.17;;;11.70;64.00;;;;;;4809265;29;20181;-86
2022/04/29 09:16:45;;;;;;;9.07;3.33;;;11.90;63.90;;;;;;4809820;29;20184;-88
2022/04/29 09:19:28;;;;;;;11.40;3.63;;;12.10;62.90;;;;;;4809168;29;20177;-87
2022/04/29 09:22:08;;;;;;;7.03;3.10;;;12.00;62.30;;;;;;4792988;29;20235;-85
2022/04/29 09:24:35;;;;;;;12.70;3.17;;;12.10;62.20;;;;;;4809120;29;20173;-86
2022/04/29 09:27:03;;;;;;;8.73;2.93;;;12.10;63.00;;;;;;4793372;29;20544;-87
2022/04/29 09:29:29;;;;;;;5.37;2.87;;;12.30;63.00;;;;;;4808891;29;20185;-86
2022/04/29 09:31:55;;;;;;;8.87;3.10;;;12.40;61.50;;;;;;4792770;29;20284;-86
2022/04/29 09:34:41;;;;;;;11.17;4.00;;;12.30;60.50;;;;;;4792570;29;20619;-86
2022/04/29 09:37:14;;;;;;;6.80;3.30;;;12.50;62.40;;;;;;4792700;29;20180;-86
2022/04/29 09:39:53;;;;;;;6.23;3.67;;;12.60;62.00;;;;;;4792616;29;20205;-86
2022/04/29 09:42:19;;;;;;;7.33;3.10;;;12.50;61.20;;;;;;4792505;29;20215;-86
2022/04/29 09:44:45;;;;;;;12.33;3.40;;;12.40;61.50;;;;;;4792465;29;20196;-86
2022/04/29 09:47:16;;;;;;;8.47;3.57;;;12.70;59.60;;;;;;4808691;29;20183;-87
2022/04/29 09:49:55;;;;;;;15.63;3.77;;;12.80;60.30;;;;;;4808369;29;20216;-86
2022/04/29 09:52:22;;;;;;;9.60;2.87;;;12.90;60.40;;;;;;4792277;29;20176;-87
2022/04/29 09:54:48;;;;;;;12.10;3.90;;;13.00;58.80;;;;;;4792148;29;20276;-87
2022/04/29 09:57:16;;;;;;;10.63;4.20;;;12.80;59.60;;;;;;4792298;29;20642;-87
2022/04/29 09:59:47;;;;;;;9.40;4.17;;;12.80;61.20;;;;;;4791995;29;20283;-86
2022/04/29 10:02:16;;;;;;;10.87;4.50;;;13.30;61.10;;;;;;4792580;29;20220;-86
2022/04/29 10:04:44;;;;;;;13.03;4.43;;;13.20;60.60;;;;;;4792903;29;20189;-87
2022/04/29 10:07:14;;;;;;;9.23;3.47;;;13.20;61.20;;;;;;4808715;29;20263;-85
2022/04/29 10:09:44;;;;;;;6.80;3.23;;;13.30;58.40;;;;;;4808384;29;20224;-87
2022/04/29 10:12:15;;;;;;;13.37;4.30;;;13.10;59.30;;;;;;4808655;29;20234;-87
2022/04/29 10:14:43;;;;;;;9.53;4.43;;;13.20;60.60;;;;;;4792285;29;20181;-86
2022/04/29 10:22:56;;;;;;;11.47;4.40;;;12.80;61.80;;;;;;4808008;29;20199;-87
2022/04/29 10:25:24;;;;;;;7.63;4.33;;;13.10;61.10;;;;;;4809414;29;20238;-85
2022/04/29 10:27:52;;;;;;;9.27;4.03;;;12.50;59.90;;;;;;4808119;29;20180;-85
2022/04/29 10:30:27;;;;;;;9.67;4.10;;;13.10;60.20;;;;;;4808947;29;20189;-85
2022/04/29 10:33:06;;;;;;;6.43;4.10;;;13.10;59.50;;;;;;4808809;29;20169;-85
2022/04/29 10:35:49;;;;;;;9.57;4.57;;;12.70;58.40;;;;;;4791631;29;20215;-86
2022/04/29 10:38:34;;;;;;;5.43;4.20;;;12.80;61.50;;;;;;4791966;29;20189;-86
2022/04/29 10:41:21;;;;;;;12.80;5.07;;;13.10;59.30;;;;;;4792250;29;20236;-85
2022/04/29 10:43:51;;;;;;;12.57;5.43;;;12.80;59.90;;;;;;4808992;29;20172;-85
2022/04/29 10:46:27;;;;;;;8.13;4.80;;;12.30;60.90;;;;;;4793352;29;20252;-85
2022/04/29 10:48:54;;;;;;;7.20;5.00;;;12.80;60.30;;;;;;4808081;29;20194;-87
2022/04/29 10:51:25;;;;;;;10.00;4.70;;;13.20;59.00;;;;;;4807409;29;20217;-86
2022/04/29 10:53:56;;;;;;;11.87;5.23;;;13.00;60.00;;;;;;4791917;29;20181;-84
2022/04/29 10:56:31;;;;;;;7.57;4.73;;;12.90;57.30;;;;;;4793440;29;20180;-85
2022/04/29 10:59:12;;;;;;;10.63;4.80;;;12.50;59.60;;;;;;4792479;29;20230;-86
2022/04/29 11:01:39;;;;;;;8.67;4.50;;;13.00;58.80;;;;;;4807506;29;20560;-86
2022/04/29 11:04:06;;;;;;;8.53;4.63;;;13.20;58.20;;;;;;4808160;29;20184;-86
2022/04/29 11:06:44;;;;;;;7.20;3.60;;;13.30;56.20;;;;;;4792147;29;20208;-86
2022/04/29 11:09:48;;;;;;;8.87;3.80;;;13.40;57.20;;;;;;4809046;29;20702;-86
2022/04/29 11:12:39;;;;;;;11.90;3.93;;;12.90;55.30;;;;;;4808326;29;20176;-86
2022/04/29 11:15:09;;;;;;;7.60;3.80;;;12.80;56.90;;;;;;4807908;29;20222;-88
2022/04/29 11:17:36;;;;;;;8.20;3.67;;;13.60;57.80;;;;;;4807792;29;20652;-85
2022/04/29 11:20:15;;;;;;;4.77;3.20;;;13.90;55.80;;;;;;4809050;29;20220;-87
2022/04/29 11:25:25;;;;;;;7.20;3.17;;;13.60;54.00;;;;;;4811188;29;20639;-86
2022/04/29 11:27:51;;;;;;;4.80;3.23;;;13.20;57.10;;;;;;4796730;29;20180;-86
2022/04/29 11:30:18;;;;;;;10.30;3.73;;;13.20;57.50;;;;;;4809984;29;20215;-85
2022/04/29 11:32:43;;;;;;;9.47;3.00;;;13.00;58.40;;;;;;4809373;29;20707;-88
2022/04/29 11:35:09;;;;;;;4.33;2.83;;;13.10;57.60;;;;;;4791002;29;20188;-89
2022/04/29 11:37:35;;;;;;;4.93;2.83;;;13.60;57.00;;;;;;4807008;29;20253;-89
2022/04/29 11:40:05;;;;;;;5.10;2.73;;;14.00;56.20;;;;;;4806988;29;20207;-88
2022/04/29 11:42:31;;;;;;;11.07;2.70;;;14.10;54.00;;;;;;4807312;29;20200;-88
2022/04/29 11:45:07;;;;;;;7.30;3.40;;;13.90;54.60;;;;;;4791963;29;20188;-87
2022/04/29 11:47:34;;;;;;;5.40;2.70;;;13.60;56.50;;;;;;4807986;29;20173;-86
2022/04/29 11:50:01;;;;;;;6.47;2.50;;;13.70;54.60;;;;;;4807165;29;20221;-89
2022/04/29 11:52:39;;;;;;;6.60;3.37;;;13.20;57.50;;;;;;4790798;29;20241;-90
2022/04/29 11:55:23;;;;;;;8.30;2.90;;;13.50;55.90;;;;;;4790576;29;20180;-87
2022/04/29 11:57:50;;;;;;;5.43;2.93;;;13.60;56.60;;;;;;4806811;29;20268;-88
2022/04/29 12:00:30;;;;;;;5.50;2.40;;;14.00;57.30;;;;;;4790900;29;20223;-88
2022/04/29 12:02:57;;;;;;;10.03;2.90;;;14.30;54.80;;;;;;4790318;29;20177;-89
2022/04/29 12:05:25;;;;;;;8.30;2.90;;;13.50;55.80;;;;;;4790148;29;20283;-89
2022/04/29 12:07:50;;;;;;;4.73;2.60;;;13.50;57.70;;;;;;4807437;29;20699;-88
2022/04/29 12:10:21;;;;;;;6.70;2.67;;;13.60;57.20;;;;;;4790586;29;20216;-88
2022/04/29 12:12:48;;;;;;;5.97;2.90;;;13.50;55.50;;;;;;4806785;29;20246;-89
2022/04/29 12:15:18;;;;;;;7.23;3.10;;;12.80;60.00;;;;;;4807790;29;20185;-88
2022/04/29 12:17:43;;;;;;;5.37;2.43;;;13.50;56.40;;;;;;4791761;29;20205;-87
2022/04/29 12:20:16;;;;;;;9.90;2.90;;;13.20;58.20;;;;;;4807489;29;20208;-88
2022/04/29 12:22:41;;;;;;;5.27;2.70;;;13.00;58.20;;;;;;4807602;29;20568;-85
2022/04/29 12:25:20;;;;;;;5.63;2.00;;;13.70;56.80;;;;;;4790975;29;20189;-89
2022/04/29 12:27:45;;;;;;;8.40;2.70;;;13.80;57.00;;;;;;4791532;29;20184;-88
2022/04/29 12:36:10;;;;;;;6.53;2.97;;;13.80;54.00;;;;;;4806694;29;20230;-89
2022/04/29 12:38:37;;;;;;;5.40;2.77;;;13.50;56.30;;;;;;4790737;29;20180;-87
2022/04/29 12:41:33;;;;;;;8.70;3.23;;;13.40;55.60;;;;;;4790557;29;20681;-89
2022/04/29 12:44:10;;;;;;;7.17;3.07;;;13.40;57.00;;;;;;4790509;29;20169;-89
2022/04/29 12:46:36;;;;;;;7.03;3.13;;;13.20;56.90;;;;;;4793546;29;20180;-89
2022/04/29 12:49:02;;;;;;;5.23;2.80;;;13.30;56.00;;;;;;4809757;29;20521;-89
2022/04/29 12:51:31;;;;;;;12.77;3.23;;;13.40;56.70;;;;;;4793574;29;20307;-88
2022/04/29 12:53:59;;;;;;;5.63;2.83;;;13.70;55.80;;;;;;4809820;29;20177;-89
2022/04/29 12:56:26;;;;;;;7.57;3.43;;;13.80;56.00;;;;;;4793431;29;20280;-89
2022/04/29 12:58:52;;;;;;;5.63;3.10;;;13.80;54.30;;;;;;4793366;29;20656;-89
2022/04/29 13:01:17;;;;;;;6.67;2.80;;;13.70;56.50;;;;;;4809581;29;20283;-90
2022/04/29 13:03:49;;;;;;;4.80;3.30;;;13.20;57.00;;;;;;4793232;29;20207;-89
2022/04/29 13:06:15;;;;;;;8.10;2.90;;;13.20;58.30;;;;;;4793175;29;20173;-89
2022/04/29 13:08:41;;;;;;;10.37;3.13;;;13.20;56.70;;;;;;4809420;29;20733;-90
2022/04/29 13:11:06;;;;;;;7.73;3.23;;;13.30;58.20;;;;;;4793372;29;20219;-91
2022/04/29 13:13:32;;;;;;;6.13;3.17;;;13.30;57.00;;;;;;4810060;29;20209;-91
2022/04/29 13:15:57;;;;;;;4.83;3.00;;;13.20;58.10;;;;;;4793510;29;20184;-90
2022/04/29 13:18:23;;;;;;;7.83;3.53;;;13.00;58.40;;;;;;4809648;29;20237;-89
2022/04/29 13:20:50;;;;;;;6.63;3.70;;;12.60;59.60;;;;;;4794250;29;20579;-86
2022/04/29 13:23:16;;;;;;;6.47;3.07;;;12.80;58.60;;;;;;4795230;29;20189;-87